Time;durP1;ratioP1;P1;durP2;ratioP2;P2;SDS_P1;SDS_P2;PMS_P1;PMS_P2;Temp;Humidity;BMP_temperature;BMP_pressure;BME280_temperature;BME280_humidity;BME280_pressure;Samples;Min_cycle;Max_cycle;Signal;HPM_P1;HPM_P2
2022/06/13 00:00:49;;;;;;;4.45;2.10;;;19.90;66.60;;;;;;5052779;28;20456;-77
2022/06/13 00:03:14;;;;;;;5.47;2.30;;;19.80;66.80;;;;;;5053026;28;20024;-78
2022/06/13 00:05:40;;;;;;;4.18;2.20;;;19.80;67.00;;;;;;5059455;28;20032;-77
2022/06/13 00:08:06;;;;;;;5.20;2.60;;;19.70;67.90;;;;;;5052155;28;20060;-75
2022/06/13 00:10:32;;;;;;;4.97;2.25;;;19.70;68.10;;;;;;5070224;28;20521;-77
2022/06/13 00:12:57;;;;;;;6.95;2.20;;;19.60;68.00;;;;;;5064317;28;20518;-77
2022/06/13 00:15:23;;;;;;;5.45;2.50;;;19.60;68.00;;;;;;5051192;28;20498;-77
2022/06/13 00:17:48;;;;;;;4.50;2.50;;;19.60;68.30;;;;;;5050759;28;20025;-77
2022/06/13 00:20:14;;;;;;;5.13;2.30;;;19.60;68.60;;;;;;5073248;28;20028;-76
2022/06/13 00:22:40;;;;;;;4.25;1.83;;;19.60;68.70;;;;;;5055401;28;20478;-76
2022/06/13 00:25:06;;;;;;;3.80;1.88;;;19.50;69.00;;;;;;5072039;28;20041;-76
2022/06/13 00:27:32;;;;;;;4.97;2.05;;;19.50;68.80;;;;;;5071330;28;20021;-76
2022/06/13 00:29:58;;;;;;;3.80;1.65;;;19.50;69.10;;;;;;5056858;28;20017;-76
2022/06/13 00:32:24;;;;;;;5.03;2.25;;;19.40;68.90;;;;;;5053828;28;20079;-76
2022/06/13 00:34:50;;;;;;;5.63;2.28;;;19.40;69.20;;;;;;5055090;28;20090;-76
2022/06/13 00:37:16;;;;;;;4.85;1.95;;;19.40;69.30;;;;;;5062719;28;20111;-77
2022/06/13 00:39:42;;;;;;;6.85;2.13;;;19.30;69.40;;;;;;5068291;28;20526;-77
2022/06/13 00:42:09;;;;;;;4.20;1.85;;;19.30;69.40;;;;;;5063128;28;20033;-77
2022/06/13 00:44:38;;;;;;;5.07;1.77;;;19.30;69.50;;;;;;5055422;28;20083;-77
2022/06/13 00:47:04;;;;;;;7.30;2.00;;;19.20;69.60;;;;;;5070653;28;20029;-77
2022/06/13 00:49:42;;;;;;;5.65;2.15;;;19.20;69.80;;;;;;5061339;28;20037;-77
2022/06/13 00:52:17;;;;;;;5.18;2.10;;;19.20;69.90;;;;;;5054635;28;20028;-77
2022/06/13 00:54:45;;;;;;;4.30;1.90;;;19.10;70.00;;;;;;5055527;28;20047;-77
2022/06/13 00:57:26;;;;;;;8.30;2.40;;;19.20;70.00;;;;;;5054686;28;20057;-77
2022/06/13 00:59:58;;;;;;;6.13;2.38;;;19.10;70.10;;;;;;5055476;28;20044;-77
2022/06/13 01:02:24;;;;;;;5.40;2.20;;;19.10;70.10;;;;;;5065113;28;20166;-77
2022/06/13 01:04:52;;;;;;;6.38;2.22;;;19.10;70.00;;;;;;5071373;28;20167;-77
2022/06/13 01:07:20;;;;;;;6.38;1.92;;;19.00;70.50;;;;;;5063960;28;20027;-77
2022/06/13 01:12:31;;;;;;;3.65;1.80;;;19.10;70.20;;;;;;5054123;28;20451;-76
2022/06/13 01:15:29;;;;;;;10.20;3.13;;;19.00;70.30;;;;;;5054138;28;20044;-76
2022/06/13 01:18:19;;;;;;;7.90;2.47;;;19.00;70.80;;;;;;5059893;28;20033;-77
2022/06/13 01:21:02;;;;;;;6.85;3.00;;;18.90;70.70;;;;;;5059814;28;20113;-76
2022/06/13 01:23:54;;;;;;;6.13;2.40;;;18.80;71.00;;;;;;5057616;28;20530;-76
2022/06/13 01:26:52;;;;;;;8.98;2.47;;;18.80;71.20;;;;;;5055236;28;20039;-78
2022/06/13 01:29:49;;;;;;;6.93;2.72;;;18.70;71.50;;;;;;5056983;28;20439;-78
2022/06/13 01:32:33;;;;;;;3.92;2.20;;;18.70;71.90;;;;;;5053212;28;20032;-78
2022/06/13 01:35:09;;;;;;;4.07;2.33;;;18.70;72.00;;;;;;5070146;28;20491;-78
2022/06/13 01:37:54;;;;;;;4.75;2.75;;;18.70;72.20;;;;;;5071694;28;20051;-77
2022/06/13 01:40:34;;;;;;;6.00;1.80;;;18.70;72.50;;;;;;5063261;28;20032;-78
2022/06/13 01:43:11;;;;;;;5.78;2.40;;;18.70;72.70;;;;;;5066393;28;20037;-78
2022/06/13 01:46:03;;;;;;;5.32;2.42;;;18.70;72.90;;;;;;5056190;28;20086;-77
2022/06/13 01:48:52;;;;;;;5.10;1.90;;;18.70;73.00;;;;;;5060778;28;20040;-76
2022/06/13 01:51:24;;;;;;;5.30;2.53;;;18.60;73.20;;;;;;5071434;28;20051;-77
2022/06/13 01:54:14;;;;;;;5.25;2.45;;;18.60;73.40;;;;;;5059415;28;20033;-77
2022/06/13 01:57:00;;;;;;;5.80;2.63;;;18.60;73.60;;;;;;5053343;28;20067;-77
2022/06/13 01:59:44;;;;;;;13.73;3.28;;;18.60;73.80;;;;;;5053387;28;20029;-77
2022/06/13 02:02:17;;;;;;;8.85;4.60;;;18.50;74.00;;;;;;5056665;28;20073;-76
2022/06/13 02:04:59;;;;;;;4.47;2.60;;;18.50;74.30;;;;;;5064016;28;20029;-75
2022/06/13 02:07:29;;;;;;;4.93;2.78;;;18.40;75.00;;;;;;5069906;28;20090;-76
2022/06/13 02:10:00;;;;;;;8.20;3.08;;;18.40;75.60;;;;;;5062740;28;20033;-76
2022/06/13 02:12:30;;;;;;;9.05;3.47;;;18.40;75.30;;;;;;5059088;28;20025;-76
2022/06/13 02:15:19;;;;;;;6.22;2.95;;;18.40;75.40;;;;;;5072365;28;20036;-77
2022/06/13 02:17:50;;;;;;;8.05;3.70;;;18.40;76.00;;;;;;5050601;28;20035;-75
2022/06/13 02:20:22;;;;;;;8.32;3.33;;;18.40;76.00;;;;;;5054804;28;20036;-75
2022/06/13 02:22:51;;;;;;;8.75;2.90;;;18.40;76.30;;;;;;5065397;28;20029;-75
2022/06/13 02:25:31;;;;;;;5.20;2.60;;;18.40;76.30;;;;;;5055365;28;20040;-75
2022/06/13 02:27:59;;;;;;;9.80;2.78;;;18.40;76.40;;;;;;5070410;28;20099;-75
2022/06/13 02:30:32;;;;;;;5.80;2.83;;;18.40;76.50;;;;;;5067791;28;20186;-76
2022/06/13 02:33:11;;;;;;;6.65;3.00;;;18.40;76.90;;;;;;5069491;28;20044;-76
2022/06/13 02:35:46;;;;;;;6.15;2.80;;;18.30;76.80;;;;;;5065721;28;20144;-75
2022/06/13 02:38:19;;;;;;;6.85;2.85;;;18.40;76.90;;;;;;5061827;28;20017;-76
2022/06/13 02:40:49;;;;;;;7.28;2.67;;;18.30;77.20;;;;;;5058850;28;20051;-76
2022/06/13 02:43:30;;;;;;;5.18;2.50;;;18.30;77.30;;;;;;5064263;28;20031;-76
2022/06/13 02:46:04;;;;;;;7.07;2.90;;;18.20;77.50;;;;;;5064487;28;20399;-75
2022/06/13 02:48:51;;;;;;;6.20;2.70;;;18.20;77.70;;;;;;5066966;28;20037;-75
2022/06/13 02:51:46;;;;;;;6.45;3.20;;;18.20;77.90;;;;;;5065417;28;20380;-76
2022/06/13 02:54:44;;;;;;;6.28;2.55;;;18.20;77.90;;;;;;5051910;28;20044;-77
2022/06/13 02:57:31;;;;;;;4.88;2.10;;;18.20;78.00;;;;;;5029158;28;20377;-77
2022/06/13 03:00:03;;;;;;;4.43;2.22;;;18.20;78.10;;;;;;5055800;28;20028;-77
2022/06/13 03:02:40;;;;;;;6.45;2.15;;;18.20;78.10;;;;;;5053967;28;20365;-76
2022/06/13 03:05:32;;;;;;;5.88;2.55;;;18.20;78.20;;;;;;5051702;28;20059;-75
2022/06/13 03:08:19;;;;;;;6.38;2.33;;;18.30;78.50;;;;;;5051767;28;20399;-74
2022/06/13 03:10:50;;;;;;;4.38;2.75;;;18.20;79.10;;;;;;5065309;28;20119;-75
2022/06/13 03:13:31;;;;;;;4.65;2.88;;;18.20;79.20;;;;;;5057065;28;20387;-76
2022/06/13 03:16:17;;;;;;;6.38;2.95;;;18.30;79.40;;;;;;5068648;28;20068;-78
2022/06/13 03:18:50;;;;;;;6.75;3.15;;;18.20;79.70;;;;;;5065139;28;20414;-77
2022/06/13 03:21:25;;;;;;;5.45;3.38;;;18.20;79.80;;;;;;5063860;28;20138;-78
2022/06/13 03:23:56;;;;;;;7.50;3.35;;;18.20;79.80;;;;;;5068403;28;20484;-76
2022/06/13 03:26:35;;;;;;;7.65;3.22;;;18.30;79.70;;;;;;5062710;28;20021;-77
2022/06/13 03:29:12;;;;;;;12.50;3.83;;;18.30;79.50;;;;;;5070795;28;20491;-76
2022/06/13 03:31:43;;;;;;;7.15;3.35;;;18.20;79.50;;;;;;5057678;28;20029;-77
2022/06/13 03:34:16;;;;;;;6.82;3.78;;;18.20;79.30;;;;;;5051401;28;20538;-78
2022/06/13 03:36:50;;;;;;;8.10;3.78;;;18.20;79.60;;;;;;5052024;28;20029;-76
2022/06/13 03:39:24;;;;;;;9.38;3.83;;;18.20;79.40;;;;;;5070270;28;20578;-76
2022/06/13 03:41:56;;;;;;;8.80;3.53;;;18.20;79.20;;;;;;5058480;28;20021;-77
2022/06/13 03:44:47;;;;;;;8.35;3.13;;;18.20;79.30;;;;;;5060955;28;20471;-76
2022/06/13 03:47:30;;;;;;;11.65;3.80;;;18.10;79.50;;;;;;5024249;28;20033;-77
2022/06/13 03:50:08;;;;;;;6.07;3.37;;;18.10;79.40;;;;;;5056566;28;20033;-75
2022/06/13 03:52:37;;;;;;;6.88;3.08;;;18.10;79.50;;;;;;5056186;28;20062;-76
2022/06/13 03:55:16;;;;;;;7.55;3.35;;;18.10;79.70;;;;;;5059887;28;20037;-76
2022/06/13 03:58:14;;;;;;;6.43;3.10;;;18.10;79.40;;;;;;5055064;28;20029;-77
2022/06/13 04:00:48;;;;;;;6.22;3.25;;;18.10;79.40;;;;;;5075160;28;20040;-77
2022/06/13 04:03:14;;;;;;;6.05;2.80;;;18.10;79.40;;;;;;5070126;28;20034;-76
2022/06/13 04:05:53;;;;;;;8.82;3.60;;;18.10;79.40;;;;;;5075568;28;20039;-76
2022/06/13 04:08:19;;;;;;;7.78;3.13;;;18.20;79.10;;;;;;5059057;28;20622;-77
2022/06/13 04:10:51;;;;;;;9.05;3.20;;;18.10;79.70;;;;;;5055398;28;20213;-77
2022/06/13 04:14:17;;;;;;;5.75;2.83;;;18.10;79.30;;;;;;5068692;28;20157;-74
2022/06/13 04:17:06;;;;;;;8.20;3.33;;;18.20;79.20;;;;;;4995906;28;20041;-75
2022/06/13 04:19:45;;;;;;;7.90;3.25;;;18.20;79.80;;;;;;5051605;28;20033;-75
2022/06/13 04:22:31;;;;;;;7.07;3.40;;;18.10;79.10;;;;;;5055406;28;20100;-75
2022/06/13 04:25:23;;;;;;;6.93;3.05;;;18.10;79.30;;;;;;5070084;28;20048;-75
2022/06/13 04:28:04;;;;;;;10.55;3.53;;;18.00;79.20;;;;;;5060664;28;20053;-75
2022/06/13 04:30:32;;;;;;;11.10;3.58;;;18.00;79.00;;;;;;5055192;28;20039;-75
2022/06/13 04:33:32;;;;;;;7.55;3.28;;;18.00;79.00;;;;;;5058090;28;20025;-75
2022/06/13 04:35:58;;;;;;;9.93;3.25;;;18.00;78.80;;;;;;5054616;28;20060;-75
2022/06/13 04:38:25;;;;;;;7.47;3.72;;;18.00;78.90;;;;;;5067564;28;20028;-76
2022/06/13 04:40:56;;;;;;;6.38;3.63;;;17.90;79.00;;;;;;5068204;28;20349;-76
2022/06/13 04:43:27;;;;;;;6.03;3.08;;;17.90;78.60;;;;;;5061951;28;20029;-76
2022/06/13 04:45:58;;;;;;;7.47;4.15;;;17.80;78.70;;;;;;5060711;28;20539;-75
2022/06/13 04:48:24;;;;;;;6.40;2.80;;;17.80;78.40;;;;;;5066997;28;20040;-75
2022/06/13 04:50:55;;;;;;;6.70;3.05;;;17.90;78.00;;;;;;5074263;28;20029;-76
2022/06/13 04:53:31;;;;;;;7.55;3.28;;;17.80;77.80;;;;;;5057894;28;20447;-76
2022/06/13 04:55:59;;;;;;;7.22;2.88;;;17.80;77.80;;;;;;5063392;28;20033;-76
2022/06/13 04:58:37;;;;;;;6.97;3.15;;;17.80;77.90;;;;;;5054377;28;20033;-76
2022/06/13 05:01:18;;;;;;;7.32;3.50;;;17.90;78.00;;;;;;5060156;28;20506;-76
2022/06/13 05:03:46;;;;;;;6.05;2.80;;;18.00;77.40;;;;;;5072400;28;20035;-76
2022/06/13 05:06:36;;;;;;;9.90;3.03;;;18.00;77.20;;;;;;5064983;28;20096;-76
2022/06/13 05:09:17;;;;;;;8.30;3.20;;;17.90;77.20;;;;;;5053359;28;20057;-76
2022/06/13 05:12:04;;;;;;;7.20;2.50;;;18.00;77.00;;;;;;5052937;28;20032;-76
2022/06/13 05:14:40;;;;;;;6.82;2.75;;;17.90;76.20;;;;;;5061128;28;20119;-77
2022/06/13 05:17:23;;;;;;;7.63;2.83;;;17.90;75.90;;;;;;5053632;28;20021;-76
2022/06/13 05:20:10;;;;;;;5.20;2.47;;;18.00;76.40;;;;;;5055073;28;20074;-77
2022/06/13 05:23:03;;;;;;;7.90;2.78;;;18.00;75.60;;;;;;5068616;28;20032;-76
2022/06/13 05:25:32;;;;;;;6.75;2.42;;;18.00;75.60;;;;;;5073653;28;20059;-77
2022/06/13 05:27:58;;;;;;;5.82;2.30;;;18.10;75.40;;;;;;5068975;28;20025;-76
2022/06/13 05:30:24;;;;;;;6.88;3.17;;;18.20;75.60;;;;;;5073417;28;20043;-76
2022/06/13 05:32:50;;;;;;;6.60;2.90;;;18.40;75.80;;;;;;5062252;28;20053;-71
2022/06/13 05:35:23;;;;;;;8.95;3.35;;;18.50;75.70;;;;;;5053132;28;20463;-70
2022/06/13 05:37:51;;;;;;;6.22;2.75;;;18.60;75.60;;;;;;5052853;28;20037;-70
2022/06/13 05:40:20;;;;;;;8.13;3.00;;;18.60;74.10;;;;;;5064037;28;20029;-68
2022/06/13 05:42:46;;;;;;;7.45;2.78;;;18.60;73.90;;;;;;5065730;28;20107;-68
2022/06/13 05:45:19;;;;;;;6.70;3.28;;;18.70;74.20;;;;;;5072430;28;20025;-68
2022/06/13 05:47:48;;;;;;;11.50;2.83;;;18.80;73.70;;;;;;5062206;28;20028;-68
2022/06/13 05:50:22;;;;;;;5.93;2.83;;;18.90;73.70;;;;;;5058918;28;20033;-68
2022/06/13 05:52:48;;;;;;;8.25;2.67;;;18.90;74.00;;;;;;5056873;28;20028;-69
2022/06/13 05:55:14;;;;;;;7.47;3.13;;;19.00;73.80;;;;;;5072793;28;20046;-70
2022/06/13 05:57:40;;;;;;;6.38;2.60;;;19.10;73.80;;;;;;5064061;28;20107;-68
2022/06/13 06:00:14;;;;;;;8.05;3.17;;;19.20;72.40;;;;;;5065716;28;20032;-69
2022/06/13 06:02:40;;;;;;;7.03;2.47;;;19.20;72.20;;;;;;5052683;28;20044;-69
2022/06/13 06:05:06;;;;;;;6.47;2.60;;;19.20;71.60;;;;;;5052945;28;20041;-68
2022/06/13 06:07:33;;;;;;;5.30;2.60;;;19.10;71.60;;;;;;5058704;28;20480;-67
2022/06/13 06:10:00;;;;;;;5.65;2.63;;;19.10;72.10;;;;;;5064979;28;20083;-68
2022/06/13 06:12:25;;;;;;;6.95;2.95;;;19.30;72.40;;;;;;5051007;28;20044;-65
2022/06/13 06:14:51;;;;;;;4.55;2.42;;;19.50;71.90;;;;;;5060156;28;20059;-69
2022/06/13 06:17:16;;;;;;;5.32;2.28;;;19.60;70.40;;;;;;5068256;28;20025;-67
2022/06/13 06:19:42;;;;;;;8.02;3.22;;;19.70;70.60;;;;;;5062822;28;20028;-67
2022/06/13 06:22:07;;;;;;;6.93;2.35;;;19.80;69.90;;;;;;5065124;28;20024;-68
2022/06/13 06:24:33;;;;;;;6.30;2.70;;;20.00;70.90;;;;;;5064427;28;20073;-68
2022/06/13 06:26:58;;;;;;;12.10;3.20;;;20.20;69.00;;;;;;5060510;28;20103;-68
2022/06/13 06:29:24;;;;;;;5.75;2.30;;;20.30;68.80;;;;;;5064946;28;20029;-68
2022/06/13 06:31:50;;;;;;;6.93;2.60;;;20.40;69.10;;;;;;5052808;28;20028;-67
2022/06/13 06:34:16;;;;;;;5.15;2.75;;;20.50;68.60;;;;;;5064297;28;20056;-68
2022/06/13 06:36:41;;;;;;;6.50;2.28;;;20.70;68.10;;;;;;5059378;28;20717;-68
2022/06/13 06:39:07;;;;;;;6.30;2.53;;;20.80;67.50;;;;;;5063559;28;20052;-68
2022/06/13 06:41:32;;;;;;;6.50;2.45;;;20.90;67.10;;;;;;5070832;28;20025;-68
2022/06/13 06:43:58;;;;;;;5.30;2.10;;;21.00;65.20;;;;;;5070662;28;20490;-69
2022/06/13 06:46:24;;;;;;;5.85;2.28;;;20.90;65.10;;;;;;5078563;28;20463;-68
2022/06/13 06:48:51;;;;;;;6.03;2.20;;;20.80;64.30;;;;;;5070404;28;20055;-68
2022/06/13 06:51:17;;;;;;;5.53;2.58;;;20.70;63.90;;;;;;5071764;28;20111;-67
2022/06/13 07:01:58;;;;;;;4.95;2.65;;;20.50;64.10;;;;;;5056388;28;20028;-68
2022/06/13 07:04:24;;;;;;;5.75;2.28;;;20.50;63.90;;;;;;5065483;28;20025;-68
2022/06/13 07:06:49;;;;;;;5.70;2.63;;;20.50;62.60;;;;;;5068972;28;20048;-68
2022/06/13 07:09:15;;;;;;;5.72;2.33;;;20.50;62.60;;;;;;5064051;28;20098;-68
2022/06/13 07:11:56;;;;;;;6.28;2.05;;;20.60;62.60;;;;;;5050870;28;20029;-68
2022/06/13 07:14:31;;;;;;;5.50;2.60;;;20.70;63.10;;;;;;5050548;28;20133;-68
2022/06/13 07:16:57;;;;;;;;;;;20.70;62.20;;;;;;5053301;28;20048;-68
2022/06/13 07:19:23;;;;;;;7.40;1.90;;;20.80;62.80;;;;;;5060990;28;19924;-68
2022/06/13 07:21:49;;;;;;;4.95;2.10;;;20.80;62.20;;;;;;5068983;28;20900;-68
2022/06/13 07:24:15;;;;;;;8.07;2.30;;;20.90;62.00;;;;;;5050592;28;20086;-68
2022/06/13 07:26:41;;;;;;;6.18;2.33;;;20.90;62.30;;;;;;5057670;28;20493;-68
2022/06/13 07:29:06;;;;;;;5.43;2.15;;;21.10;62.50;;;;;;5064572;28;20038;-68
2022/06/13 07:31:44;;;;;;;5.03;1.90;;;21.20;61.20;;;;;;5061550;28;20078;-68
2022/06/13 07:34:17;;;;;;;5.53;2.13;;;21.20;60.80;;;;;;5057744;28;20041;-68
2022/06/13 07:36:43;;;;;;;3.67;1.80;;;21.30;60.70;;;;;;5065127;28;20044;-68
2022/06/13 07:39:09;;;;;;;6.53;2.03;;;21.30;59.40;;;;;;5064877;28;20021;-67
2022/06/13 07:41:37;;;;;;;3.55;1.80;;;21.30;59.50;;;;;;5083967;28;20029;-68
2022/06/13 07:44:03;;;;;;;3.10;1.42;;;21.30;60.90;;;;;;5063288;28;20120;-68
2022/06/13 07:46:30;;;;;;;5.68;1.90;;;21.40;59.50;;;;;;5069850;28;20108;-67
2022/06/13 07:48:56;;;;;;;4.22;2.30;;;21.30;59.90;;;;;;5056459;28;20037;-67
2022/06/13 07:51:22;;;;;;;5.13;2.03;;;21.10;60.50;;;;;;5051197;28;20026;-68
2022/06/13 07:53:49;;;;;;;5.65;2.38;;;21.30;60.20;;;;;;5080071;28;20033;-70
2022/06/13 07:56:20;;;;;;;4.85;1.63;;;21.30;59.40;;;;;;5051179;28;20033;-69
2022/06/13 07:58:49;;;;;;;5.95;1.90;;;21.30;59.40;;;;;;5064174;28;20035;-68
2022/06/13 08:01:16;;;;;;;5.47;1.77;;;21.20;58.90;;;;;;5062823;28;20079;-70
2022/06/13 08:03:42;;;;;;;4.93;2.05;;;21.20;58.90;;;;;;5052034;28;20025;-67
2022/06/13 08:06:09;;;;;;;4.85;2.03;;;21.20;58.70;;;;;;5055452;28;20029;-68
2022/06/13 08:08:39;;;;;;;3.63;1.70;;;21.20;59.10;;;;;;5059069;28;20064;-68
2022/06/13 08:11:07;;;;;;;3.35;1.83;;;21.20;57.60;;;;;;5059436;28;20129;-68
2022/06/13 08:13:34;;;;;;;3.95;1.42;;;21.20;57.70;;;;;;5055850;28;20174;-68
2022/06/13 08:15:59;;;;;;;4.53;1.83;;;21.10;57.70;;;;;;5057263;28;20120;-68
2022/06/13 08:18:25;;;;;;;5.40;2.15;;;21.30;58.30;;;;;;5066492;28;20175;-68
2022/06/13 08:20:51;;;;;;;6.82;1.80;;;21.20;57.20;;;;;;5066996;28;20033;-68
2022/06/13 08:23:19;;;;;;;4.20;1.73;;;21.10;56.90;;;;;;5057852;28;20055;-68
2022/06/13 08:25:45;;;;;;;3.85;1.70;;;21.10;56.50;;;;;;5059861;28;20412;-68
2022/06/13 08:28:13;;;;;;;3.70;1.73;;;21.00;56.90;;;;;;5065124;28;20036;-68
2022/06/13 08:30:43;;;;;;;5.00;2.00;;;21.10;57.40;;;;;;5057945;28;20033;-67
2022/06/13 08:33:09;;;;;;;5.63;1.95;;;21.20;56.80;;;;;;5060054;28;20028;-67
2022/06/13 08:35:35;;;;;;;3.72;1.85;;;21.10;55.50;;;;;;5067059;28;20506;-67
2022/06/13 08:38:03;;;;;;;5.00;1.85;;;21.10;56.70;;;;;;5063679;28;20029;-68
2022/06/13 08:40:55;;;;;;;5.93;2.05;;;21.10;55.60;;;;;;5060003;28;20550;-68
2022/06/13 08:43:24;;;;;;;5.07;2.10;;;21.10;56.50;;;;;;5052200;28;20385;-68
2022/06/13 08:46:15;;;;;;;4.38;1.85;;;21.00;55.80;;;;;;5061513;28;20029;-68
2022/06/13 08:48:44;;;;;;;4.22;1.85;;;20.90;55.70;;;;;;5062775;28;20442;-68
2022/06/13 08:51:19;;;;;;;4.20;2.10;;;21.00;56.00;;;;;;5065609;28;20025;-68
2022/06/13 08:53:56;;;;;;;6.63;2.22;;;21.10;56.20;;;;;;5060703;28;20379;-68
2022/06/13 08:56:26;;;;;;;5.63;2.00;;;21.40;57.20;;;;;;5072460;28;20059;-68
2022/06/13 08:59:22;;;;;;;2.85;1.92;;;21.70;57.50;;;;;;5057298;28;20391;-68
2022/06/13 09:02:15;;;;;;;6.47;2.10;;;22.00;56.20;;;;;;5070841;28;20712;-68
2022/06/13 09:04:51;;;;;;;5.82;2.40;;;22.20;55.60;;;;;;5070981;28;20360;-68
2022/06/13 09:07:35;;;;;;;4.97;1.77;;;22.40;54.60;;;;;;5060570;28;20027;-68
2022/06/13 09:10:18;;;;;;;5.32;2.25;;;22.40;55.00;;;;;;5073022;28;20524;-68
2022/06/13 09:13:11;;;;;;;8.00;2.65;;;22.50;55.90;;;;;;5069391;28;20033;-66
2022/06/13 09:15:47;;;;;;;4.68;2.42;;;22.60;55.10;;;;;;5065968;28;20501;-68
2022/06/13 09:18:28;;;;;;;7.65;2.22;;;22.70;54.80;;;;;;5065807;28;20553;-68
2022/06/13 09:21:19;;;;;;;5.63;2.25;;;22.70;55.30;;;;;;5059000;28;20503;-65
2022/06/13 09:24:03;;;;;;;8.77;2.55;;;22.90;55.70;;;;;;5066541;28;20029;-70
2022/06/13 09:27:02;;;;;;;4.93;2.30;;;23.10;55.60;;;;;;5062317;28;20472;-70
2022/06/13 09:30:05;;;;;;;4.60;2.70;;;23.20;54.50;;;;;;5053781;28;20028;-69
2022/06/13 09:32:39;;;;;;;5.47;2.15;;;23.30;54.70;;;;;;5064766;28;20498;-70
2022/06/13 09:35:24;;;;;;;8.23;3.03;;;23.30;53.40;;;;;;5070128;28;20110;-69
2022/06/13 09:37:57;;;;;;;9.00;2.58;;;23.00;53.30;;;;;;5063831;28;20784;-70
2022/06/13 09:40:33;;;;;;;7.22;2.40;;;22.90;54.10;;;;;;5065933;28;20108;-70
2022/06/13 09:43:21;;;;;;;8.15;2.70;;;22.80;54.50;;;;;;5059884;28;20086;-69
2022/06/13 09:46:02;;;;;;;7.80;2.60;;;22.90;54.50;;;;;;5067257;28;20040;-70
2022/06/13 09:48:54;;;;;;;5.40;2.40;;;22.90;54.70;;;;;;5061563;28;20028;-70
2022/06/13 09:51:43;;;;;;;13.38;2.97;;;23.00;54.20;;;;;;5062178;28;20028;-69
2022/06/13 09:54:39;;;;;;;6.13;2.80;;;23.00;53.50;;;;;;5062465;28;20032;-68
2022/06/13 09:57:32;;;;;;;6.15;2.10;;;22.90;54.20;;;;;;5068802;28;20043;-69
2022/06/13 10:00:05;;;;;;;9.45;2.80;;;22.90;53.50;;;;;;5067312;28;20109;-69
2022/06/13 10:02:42;;;;;;;3.97;2.50;;;22.80;54.50;;;;;;5067410;28;20032;-68
2022/06/13 10:05:33;;;;;;;4.72;2.50;;;22.80;53.60;;;;;;5071313;28;20035;-68
2022/06/13 10:08:33;;;;;;;4.60;2.05;;;22.80;53.80;;;;;;5060125;28;20617;-67
2022/06/13 10:11:27;;;;;;;4.75;2.55;;;22.90;53.40;;;;;;5072589;28;20506;-68
2022/06/13 10:14:08;;;;;;;5.38;2.60;;;22.80;53.30;;;;;;5062975;28;20040;-69
2022/06/13 10:16:47;;;;;;;5.35;2.28;;;22.90;53.00;;;;;;5069955;28;20035;-69
2022/06/13 10:19:38;;;;;;;6.43;2.35;;;22.80;51.60;;;;;;5051228;28;20039;-69
2022/06/13 10:22:06;;;;;;;8.20;2.50;;;22.70;52.40;;;;;;5065075;28;20055;-68
2022/06/13 10:24:49;;;;;;;8.75;2.28;;;22.70;51.60;;;;;;5068853;28;20032;-68
2022/06/13 10:27:36;;;;;;;5.72;2.83;;;22.60;52.30;;;;;;5064545;28;20083;-68
2022/06/13 10:30:08;;;;;;;6.18;2.55;;;22.70;52.10;;;;;;5052196;28;20032;-68
2022/06/13 10:33:01;;;;;;;5.97;2.40;;;22.70;52.50;;;;;;5060787;28;20024;-69
2022/06/13 10:35:42;;;;;;;8.25;2.17;;;22.70;51.90;;;;;;5070887;28;20111;-69
2022/06/13 10:38:23;;;;;;;6.03;2.70;;;22.60;52.40;;;;;;5057987;28;20090;-69
2022/06/13 10:40:49;;;;;;;6.97;2.38;;;22.60;53.50;;;;;;5068588;28;20035;-69
2022/06/13 10:43:15;;;;;;;5.68;2.40;;;22.70;53.80;;;;;;5058113;28;20480;-69
2022/06/13 10:45:43;;;;;;;5.88;2.53;;;22.80;54.10;;;;;;5061206;28;20033;-67
2022/06/13 10:48:13;;;;;;;8.70;2.20;;;22.90;54.00;;;;;;5064001;28;20488;-67
2022/06/13 10:50:45;;;;;;;11.52;3.22;;;23.10;52.40;;;;;;5070263;28;20086;-67
2022/06/13 10:53:23;;;;;;;6.40;2.45;;;23.30;53.70;;;;;;5053904;28;20092;-67
2022/06/13 10:55:51;;;;;;;5.95;2.05;;;23.40;52.40;;;;;;5051603;28;20037;-68
2022/06/13 10:58:38;;;;;;;3.55;1.70;;;23.50;51.30;;;;;;5062310;28;20055;-68
2022/06/13 11:01:15;;;;;;;3.72;1.88;;;23.40;51.40;;;;;;5062982;28;20044;-68
2022/06/13 11:03:59;;;;;;;6.13;2.78;;;23.40;51.70;;;;;;5066691;28;20089;-68
2022/06/13 11:06:47;;;;;;;4.60;1.85;;;23.30;52.00;;;;;;5060708;28;20077;-68
2022/06/13 11:09:26;;;;;;;5.05;2.25;;;23.20;52.10;;;;;;5069748;28;20131;-68
2022/06/13 11:12:00;;;;;;;4.03;1.77;;;23.20;52.30;;;;;;5063132;28;20048;-68
2022/06/13 11:22:37;;;;;;;6.33;2.00;;;23.20;50.30;;;;;;5066364;28;20032;-68
2022/06/13 11:23:01;;;;;;;3.88;1.75;;;23.20;50.60;;;;;;5059253;28;20115;-68
2022/06/13 11:25:30;;;;;;;4.72;1.77;;;23.20;49.60;;;;;;5070853;28;20036;-68
2022/06/13 11:28:12;;;;;;;8.73;2.50;;;23.20;50.20;;;;;;5062558;28;20543;-68
2022/06/13 11:30:43;;;;;;;4.15;2.00;;;23.10;50.20;;;;;;5070567;28;20032;-68
2022/06/13 11:33:32;;;;;;;5.20;2.00;;;23.00;49.10;;;;;;5066158;28;20025;-68
2022/06/13 11:36:01;;;;;;;7.75;2.50;;;22.80;50.30;;;;;;5050563;28;20044;-69
2022/06/13 11:38:27;;;;;;;7.40;2.40;;;22.70;50.90;;;;;;5066682;28;20104;-69
2022/06/13 11:41:19;;;;;;;5.43;2.30;;;22.80;51.20;;;;;;5071291;28;20024;-69
2022/06/13 11:44:01;;;;;;;4.38;2.28;;;22.70;49.50;;;;;;5052550;28;20077;-68
2022/06/13 11:46:26;;;;;;;4.40;2.22;;;22.70;50.60;;;;;;5053662;28;20032;-66
2022/06/13 11:48:52;;;;;;;5.85;2.00;;;22.70;50.80;;;;;;5068965;28;20024;-68
2022/06/13 11:51:26;;;;;;;4.82;2.28;;;22.70;49.60;;;;;;5065370;28;20036;-66
2022/06/13 11:53:55;;;;;;;3.20;1.73;;;22.70;50.40;;;;;;5064364;28;20054;-69
2022/06/13 11:56:24;;;;;;;5.63;2.40;;;22.80;51.20;;;;;;5053110;28;20571;-68
2022/06/13 11:58:52;;;;;;;6.63;2.38;;;23.10;51.70;;;;;;5063686;28;20040;-68
2022/06/13 12:01:23;;;;;;;3.92;2.28;;;23.40;51.50;;;;;;5062008;28;20017;-70
2022/06/13 12:04:00;;;;;;;3.22;1.88;;;23.60;50.20;;;;;;5067735;28;20067;-67
2022/06/13 12:06:27;;;;;;;6.75;2.80;;;23.70;49.80;;;;;;5063721;28;20021;-67
2022/06/13 12:09:03;;;;;;;5.07;2.35;;;23.70;49.60;;;;;;5075715;28;20126;-67
2022/06/13 12:11:29;;;;;;;4.45;2.35;;;23.70;49.30;;;;;;5058324;28;20029;-67
2022/06/13 12:13:59;;;;;;;8.25;2.53;;;23.70;49.10;;;;;;5057197;28;20090;-67
2022/06/13 12:16:47;;;;;;;7.82;2.30;;;23.70;49.20;;;;;;5066020;28;20044;-67
2022/06/13 12:19:32;;;;;;;7.63;2.42;;;23.60;49.40;;;;;;5073232;28;20040;-67
2022/06/13 12:22:13;;;;;;;10.23;2.65;;;23.50;49.30;;;;;;5068079;28;20108;-67
2022/06/13 12:25:07;;;;;;;9.18;2.80;;;23.30;49.60;;;;;;5075438;28;20024;-67
2022/06/13 12:28:06;;;;;;;7.65;2.35;;;22.90;50.40;;;;;;5062444;28;20513;-66
2022/06/13 12:30:49;;;;;;;4.80;2.10;;;22.60;51.20;;;;;;5072910;28;20040;-67
2022/06/13 12:33:53;;;;;;;7.10;2.45;;;22.40;51.50;;;;;;5063978;28;20035;-67
2022/06/13 12:36:45;;;;;;;5.07;1.98;;;22.30;51.70;;;;;;5045808;28;20037;-68
2022/06/13 12:39:34;;;;;;;5.38;1.90;;;22.10;51.90;;;;;;5041757;28;20238;-67
2022/06/13 12:42:10;;;;;;;5.30;2.33;;;22.00;51.80;;;;;;5069237;28;20078;-67
2022/06/13 12:45:18;;;;;;;5.50;1.83;;;21.80;51.90;;;;;;5073804;28;20055;-67
2022/06/13 12:48:09;;;;;;;7.18;2.45;;;21.70;52.30;;;;;;5054161;28;20040;-67
2022/06/13 12:50:42;;;;;;;5.90;1.95;;;21.70;53.10;;;;;;5073100;28;20036;-67
2022/06/13 12:53:35;;;;;;;3.47;2.03;;;21.80;52.50;;;;;;5071702;28;20036;-67
2022/06/13 12:56:22;;;;;;;2.92;1.42;;;22.00;51.90;;;;;;5072757;28;20071;-68
2022/06/13 12:59:01;;;;;;;4.97;2.08;;;22.10;51.40;;;;;;5070821;28;20035;-68
2022/06/13 13:01:45;;;;;;;4.68;1.70;;;22.20;50.60;;;;;;5072560;28;20388;-67
2022/06/13 13:04:48;;;;;;;5.68;1.83;;;22.10;51.20;;;;;;5066694;28;20024;-67
2022/06/13 13:07:41;;;;;;;3.33;1.75;;;22.00;50.80;;;;;;5070599;28;20031;-67
2022/06/13 13:10:36;;;;;;;3.08;1.60;;;22.10;50.60;;;;;;5072522;28;20043;-67
2022/06/13 13:13:15;;;;;;;8.13;1.98;;;22.10;50.60;;;;;;5070991;28;20119;-68
2022/06/13 13:16:00;;;;;;;4.20;1.90;;;22.30;50.90;;;;;;5072096;28;20056;-68
2022/06/13 13:19:02;;;;;;;3.85;1.60;;;22.40;50.60;;;;;;5060565;28;20025;-68
2022/06/13 13:21:30;;;;;;;3.75;1.73;;;22.50;51.10;;;;;;5051342;28;20028;-68
2022/06/13 13:24:40;;;;;;;3.05;1.65;;;22.50;51.20;;;;;;5071025;28;20032;-68
2022/06/13 13:27:17;;;;;;;5.25;1.77;;;22.40;51.90;;;;;;5067145;28;20032;-68
2022/06/13 13:30:07;;;;;;;4.43;1.83;;;22.30;53.00;;;;;;5059229;28;20031;-68
2022/06/13 13:32:47;;;;;;;5.13;1.85;;;22.20;54.00;;;;;;5064248;28;20033;-68
2022/06/13 13:35:18;;;;;;;3.95;1.90;;;22.10;54.50;;;;;;5071836;28;20476;-68
2022/06/13 13:38:11;;;;;;;4.53;1.80;;;22.10;54.80;;;;;;5062812;28;20101;-68
2022/06/13 13:40:48;;;;;;;4.45;1.85;;;22.00;54.80;;;;;;5070653;28;20083;-69
2022/06/13 13:43:13;;;;;;;6.55;2.17;;;22.10;55.10;;;;;;5065478;28;20052;-68
2022/06/13 13:45:43;;;;;;;4.85;1.90;;;22.30;54.70;;;;;;5071728;28;20488;-68
2022/06/13 13:48:23;;;;;;;2.25;1.50;;;22.50;54.80;;;;;;5067346;28;20183;-68